Time;durP1;ratioP1;P1;durP2;ratioP2;P2;SDS_P1;SDS_P2;PMS_P1;PMS_P2;Temp;Humidity;BMP_temperature;BMP_pressure;BME280_temperature;BME280_humidity;BME280_pressure;Samples;Min_cycle;Max_cycle;Signal;HPM_P1;HPM_P2
2023/01/07 00:00:34;;;;;;;2.97;2.67;;;8.50;95.30;;;;;;5077209;28;20208;-84
2023/01/07 00:03:01;;;;;;;3.03;2.65;;;8.40;95.80;;;;;;5076319;28;20649;-83
2023/01/07 00:05:28;;;;;;;2.67;2.30;;;8.40;95.80;;;;;;5074822;28;20752;-85
2023/01/07 00:07:54;;;;;;;3.05;2.33;;;8.60;95.60;;;;;;5076091;28;20208;-83
2023/01/07 00:10:21;;;;;;;2.70;2.42;;;8.60;95.30;;;;;;5080220;28;20201;-86
2023/01/07 00:12:49;;;;;;;2.78;2.45;;;8.70;94.70;;;;;;5076908;28;20201;-87
2023/01/07 00:15:16;;;;;;;2.70;2.50;;;8.70;94.90;;;;;;5076903;28;20204;-82
2023/01/07 00:17:43;;;;;;;2.90;2.60;;;8.60;95.00;;;;;;5076740;28;20205;-82
2023/01/07 00:20:10;;;;;;;3.17;2.75;;;8.50;95.70;;;;;;5081058;28;20205;-82
2023/01/07 00:22:37;;;;;;;4.00;2.70;;;8.40;95.90;;;;;;5085509;28;20221;-87
2023/01/07 00:25:04;;;;;;;2.60;2.40;;;8.30;95.50;;;;;;5083174;28;20232;-82
2023/01/07 00:27:31;;;;;;;3.67;2.95;;;8.30;95.80;;;;;;5080967;28;20198;-86
2023/01/07 00:29:59;;;;;;;3.40;2.58;;;8.50;95.50;;;;;;5076574;28;20224;-84
2023/01/07 00:32:49;;;;;;;3.80;2.53;;;8.60;95.10;;;;;;5082460;28;20204;-82
2023/01/07 00:35:22;;;;;;;2.88;2.55;;;8.50;94.90;;;;;;5077029;28;20299;-83
2023/01/07 00:37:51;;;;;;;2.88;2.40;;;8.40;95.20;;;;;;5075709;28;20207;-84
2023/01/07 00:40:18;;;;;;;2.80;2.50;;;8.40;95.40;;;;;;5078502;28;20215;-82
2023/01/07 00:42:55;;;;;;;2.75;2.53;;;8.40;95.60;;;;;;5074649;28;20204;-82
2023/01/07 00:45:25;;;;;;;2.50;2.30;;;8.50;95.40;;;;;;5070308;28;20245;-82
2023/01/07 00:47:52;;;;;;;3.10;2.80;;;8.40;95.40;;;;;;5076391;28;20196;-81
2023/01/07 00:50:20;;;;;;;3.05;2.72;;;8.40;95.50;;;;;;5079361;28;20668;-84
2023/01/07 00:52:46;;;;;;;2.92;2.50;;;8.40;95.40;;;;;;5084616;28;20201;-81
2023/01/07 00:55:14;;;;;;;5.03;2.83;;;8.40;95.80;;;;;;5072986;28;20225;-83
2023/01/07 00:57:41;;;;;;;2.65;2.40;;;8.40;95.80;;;;;;5080201;28;20205;-81
2023/01/07 01:00:09;;;;;;;2.58;2.22;;;8.40;95.80;;;;;;5081601;28;20205;-84
2023/01/07 01:02:37;;;;;;;3.05;2.80;;;8.40;95.60;;;;;;5072825;28;20553;-82
2023/01/07 01:05:05;;;;;;;2.75;2.25;;;8.40;95.50;;;;;;5076138;28;20225;-88
2023/01/07 01:07:32;;;;;;;2.40;2.20;;;8.50;95.30;;;;;;5074535;28;20208;-82
2023/01/07 01:09:59;;;;;;;2.72;2.22;;;8.40;95.40;;;;;;5073719;28;20205;-83
2023/01/07 01:12:26;;;;;;;2.63;2.42;;;8.40;95.30;;;;;;5079603;28;20664;-85
2023/01/07 01:14:52;;;;;;;2.78;2.40;;;8.40;95.30;;;;;;5083771;28;20211;-82
2023/01/07 01:17:20;;;;;;;2.90;2.60;;;8.40;95.30;;;;;;5080837;28;20212;-84
2023/01/07 01:19:48;;;;;;;3.45;2.67;;;8.40;95.40;;;;;;5073743;28;20208;-84
2023/01/07 01:22:15;;;;;;;4.13;2.58;;;8.40;96.10;;;;;;5082643;28;20211;-82
2023/01/07 01:24:41;;;;;;;3.63;2.92;;;8.30;95.80;;;;;;5081381;28;20225;-83
2023/01/07 01:27:08;;;;;;;3.13;2.78;;;8.30;95.80;;;;;;5083506;28;20201;-81
2023/01/07 01:29:35;;;;;;;3.22;2.60;;;8.30;95.80;;;;;;5079112;28;20201;-88
2023/01/07 01:32:02;;;;;;;2.50;2.30;;;8.40;95.80;;;;;;5083245;28;20665;-83
2023/01/07 01:34:28;;;;;;;2.90;2.60;;;8.50;95.20;;;;;;5079031;28;20213;-85
2023/01/07 01:36:57;;;;;;;3.42;2.58;;;8.40;95.80;;;;;;5080130;28;20201;-85
2023/01/07 01:39:23;;;;;;;3.08;2.38;;;8.40;95.80;;;;;;5081796;28;20193;-82
2023/01/07 01:41:50;;;;;;;3.70;2.35;;;8.40;95.80;;;;;;5082931;28;20216;-84
2023/01/07 01:44:36;;;;;;;2.58;2.38;;;8.30;95.80;;;;;;5077530;28;20208;-87
2023/01/07 01:47:05;;;;;;;3.55;2.53;;;8.20;95.70;;;;;;5071340;28;20220;-82
2023/01/07 01:49:36;;;;;;;2.88;2.38;;;8.20;95.70;;;;;;5084541;28;20201;-83
2023/01/07 01:52:09;;;;;;;2.45;2.25;;;8.20;95.70;;;;;;5079093;28;20204;-81
2023/01/07 01:54:37;;;;;;;2.58;2.33;;;8.20;95.70;;;;;;5076624;28;20232;-85
2023/01/07 01:57:07;;;;;;;3.00;2.28;;;8.30;95.80;;;;;;5072082;28;20212;-81
2023/01/07 01:59:38;;;;;;;2.42;2.13;;;8.40;95.40;;;;;;5077579;28;20235;-81
2023/01/07 02:02:07;;;;;;;3.45;2.50;;;8.50;95.00;;;;;;5082103;28;20208;-81
2023/01/07 02:04:34;;;;;;;2.90;2.20;;;8.50;95.20;;;;;;5084312;28;20295;-82
2023/01/07 02:07:05;;;;;;;3.28;2.92;;;8.40;95.20;;;;;;5083126;28;20201;-83
2023/01/07 02:09:32;;;;;;;2.17;1.98;;;8.50;95.00;;;;;;5083498;28;20212;-82
2023/01/07 02:12:09;;;;;;;2.63;2.25;;;8.50;94.70;;;;;;5079204;28;20200;-82
2023/01/07 02:14:53;;;;;;;2.53;2.33;;;8.50;94.70;;;;;;5082994;28;20213;-84
2023/01/07 02:17:31;;;;;;;3.00;2.25;;;8.50;94.80;;;;;;5083828;28;20568;-81
2023/01/07 02:20:23;;;;;;;2.83;2.22;;;8.50;94.90;;;;;;5077374;28;20201;-83
2023/01/07 02:23:27;;;;;;;2.25;2.08;;;8.50;94.80;;;;;;5072020;28;20225;-81
2023/01/07 02:26:32;;;;;;;3.20;2.53;;;8.40;94.80;;;;;;5062964;28;20232;-82
2023/01/07 02:29:22;;;;;;;2.33;2.10;;;8.40;95.10;;;;;;5077960;28;20204;-82
2023/01/07 02:32:20;;;;;;;3.25;2.40;;;8.30;95.40;;;;;;5075509;28;20204;-81
2023/01/07 02:34:57;;;;;;;2.22;2.03;;;8.40;95.80;;;;;;5070062;28;20205;-84
2023/01/07 02:37:30;;;;;;;2.42;2.22;;;8.40;95.20;;;;;;5079998;28;20208;-84
2023/01/07 02:40:04;;;;;;;2.30;2.10;;;8.40;95.00;;;;;;5079834;28;20216;-84
2023/01/07 02:42:41;;;;;;;2.20;2.00;;;8.30;95.10;;;;;;5074729;28;20577;-82
2023/01/07 02:45:15;;;;;;;2.22;2.03;;;8.20;95.70;;;;;;5077586;28;20282;-82
2023/01/07 02:47:52;;;;;;;2.78;2.03;;;8.20;95.70;;;;;;5077133;28;20610;-82
2023/01/07 02:50:19;;;;;;;2.30;2.08;;;8.20;95.70;;;;;;5080178;28;20200;-82
2023/01/07 02:52:46;;;;;;;2.17;1.88;;;8.20;95.70;;;;;;5076094;28;20296;-81
2023/01/07 02:55:16;;;;;;;2.08;1.98;;;8.20;95.70;;;;;;5079939;28;20238;-83
2023/01/07 02:58:28;;;;;;;1.80;1.70;;;8.20;95.70;;;;;;5077011;28;20204;-85
2023/01/07 03:01:36;;;;;;;2.05;1.85;;;8.20;95.70;;;;;;5084689;28;20572;-84
2023/01/07 03:04:17;;;;;;;2.00;1.80;;;8.20;95.80;;;;;;5077409;28;20208;-82
2023/01/07 03:07:04;;;;;;;1.90;1.80;;;8.20;95.70;;;;;;5081594;28;20213;-81
2023/01/07 03:09:37;;;;;;;2.15;1.88;;;8.20;95.40;;;;;;5079113;28;20211;-85
2023/01/07 03:12:10;;;;;;;1.90;1.80;;;8.20;95.30;;;;;;5079715;28;20205;-81
2023/01/07 03:14:41;;;;;;;2.30;2.10;;;8.20;95.30;;;;;;5077685;28;20212;-82
2023/01/07 03:17:18;;;;;;;2.60;1.60;;;8.20;95.50;;;;;;5082623;28;20204;-82
2023/01/07 03:19:49;;;;;;;1.80;1.70;;;8.10;95.70;;;;;;5082769;28;20294;-81
2023/01/07 03:22:19;;;;;;;1.70;1.60;;;8.20;95.50;;;;;;5077083;28;20208;-85
2023/01/07 03:24:48;;;;;;;1.95;1.80;;;8.20;95.40;;;;;;5076308;28;20205;-82
2023/01/07 03:27:18;;;;;;;2.25;1.88;;;8.00;95.70;;;;;;5079874;28;20577;-82
2023/01/07 03:29:47;;;;;;;1.88;1.75;;;8.00;95.70;;;;;;5078919;28;20212;-86
2023/01/07 03:32:16;;;;;;;1.67;1.58;;;8.00;95.70;;;;;;5073956;28;20586;-82
2023/01/07 03:34:44;;;;;;;1.85;1.75;;;8.00;95.70;;;;;;5073905;28;20205;-84
2023/01/07 03:37:17;;;;;;;2.08;1.80;;;8.00;95.70;;;;;;5075464;28;20212;-81
2023/01/07 03:39:46;;;;;;;2.67;1.85;;;8.00;95.70;;;;;;5078388;28;20717;-82
2023/01/07 03:44:59;;;;;;;2.00;1.80;;;8.00;95.40;;;;;;5078998;28;20688;-82
2023/01/07 03:47:28;;;;;;;1.85;1.70;;;8.10;95.30;;;;;;5072131;28;20208;-83
2023/01/07 03:49:55;;;;;;;4.45;1.75;;;8.10;95.50;;;;;;5079003;28;20212;-82
2023/01/07 03:52:23;;;;;;;1.95;1.75;;;8.10;95.00;;;;;;5077418;28;20212;-84
2023/01/07 03:54:50;;;;;;;2.03;1.75;;;8.10;94.90;;;;;;5077632;28;20703;-82
2023/01/07 03:57:17;;;;;;;1.95;1.75;;;8.00;94.50;;;;;;5081648;28;20228;-81
2023/01/07 03:59:43;;;;;;;1.80;1.70;;;8.00;94.90;;;;;;5086932;28;20212;-83
2023/01/07 04:02:10;;;;;;;1.77;1.60;;;7.90;95.00;;;;;;5078924;28;20232;-81
2023/01/07 04:04:37;;;;;;;1.80;1.70;;;7.80;95.60;;;;;;5078020;28;20197;-82
2023/01/07 04:07:04;;;;;;;2.00;1.70;;;7.80;95.70;;;;;;5088553;28;20669;-82
2023/01/07 04:09:32;;;;;;;1.80;1.70;;;7.80;95.70;;;;;;5080891;28;20550;-82
2023/01/07 04:11:59;;;;;;;2.65;1.40;;;7.70;95.60;;;;;;5084467;28;20213;-83
2023/01/07 04:14:25;;;;;;;2.00;1.90;;;7.70;95.60;;;;;;5082617;28;20193;-82
2023/01/07 04:16:52;;;;;;;1.90;1.80;;;7.70;95.10;;;;;;5084695;28;20224;-81
2023/01/07 04:19:19;;;;;;;2.00;1.85;;;7.70;95.10;;;;;;5082481;28;20215;-82
2023/01/07 04:21:46;;;;;;;1.70;1.60;;;7.70;95.20;;;;;;5079659;28;20193;-83
2023/01/07 04:24:13;;;;;;;1.70;1.60;;;7.60;95.60;;;;;;5084355;28;20233;-81
2023/01/07 04:26:41;;;;;;;3.03;1.90;;;7.60;95.00;;;;;;5084693;28;20229;-82
2023/01/07 04:29:08;;;;;;;1.83;1.73;;;7.60;95.20;;;;;;5078726;28;20208;-82
2023/01/07 04:31:34;;;;;;;1.80;1.70;;;7.70;95.10;;;;;;5084000;28;20204;-82
2023/01/07 04:34:01;;;;;;;2.10;1.90;;;7.70;95.00;;;;;;5079913;28;20575;-84
2023/01/07 04:36:28;;;;;;;1.80;1.70;;;7.70;94.80;;;;;;5082887;28;20657;-84
2023/01/07 04:38:55;;;;;;;2.55;1.88;;;7.70;94.90;;;;;;5086871;28;20564;-82
2023/01/07 04:41:22;;;;;;;1.75;1.65;;;7.60;95.10;;;;;;5084919;28;20279;-81
2023/01/07 04:43:50;;;;;;;2.20;2.00;;;7.60;95.00;;;;;;5083384;28;20568;-89
2023/01/07 04:46:16;;;;;;;2.22;1.80;;;7.60;95.20;;;;;;5087386;28;20703;-81
2023/01/07 04:48:43;;;;;;;1.75;1.65;;;7.60;95.10;;;;;;5082946;28;20197;-83
2023/01/07 04:51:10;;;;;;;2.17;1.92;;;7.50;95.00;;;;;;5085858;28;20200;-82
2023/01/07 04:53:37;;;;;;;2.00;1.90;;;7.50;95.00;;;;;;5073295;28;20208;-88
2023/01/07 04:56:05;;;;;;;2.05;1.92;;;7.50;94.70;;;;;;5077657;28;20243;-81
2023/01/07 04:58:32;;;;;;;2.83;1.98;;;7.50;95.10;;;;;;5083966;28;20723;-83
2023/01/07 05:01:01;;;;;;;2.05;1.90;;;7.50;94.80;;;;;;5084681;28;20200;-82
2023/01/07 05:03:28;;;;;;;2.72;2.40;;;7.50;94.70;;;;;;5081989;28;20212;-84
2023/01/07 05:05:55;;;;;;;3.40;1.70;;;7.50;94.60;;;;;;5079049;28;20232;-84
2023/01/07 05:08:22;;;;;;;3.92;1.88;;;7.40;94.50;;;;;;5078635;28;20288;-82
2023/01/07 05:10:50;;;;;;;2.22;2.03;;;7.30;94.80;;;;;;5083473;28;20207;-81
2023/01/07 05:13:18;;;;;;;2.28;1.80;;;7.20;94.30;;;;;;5080761;28;20208;-82
2023/01/07 05:15:45;;;;;;;2.63;2.00;;;7.10;94.50;;;;;;5080232;28;20216;-83
2023/01/07 05:18:13;;;;;;;2.22;1.60;;;7.00;94.80;;;;;;5077765;28;20207;-82
2023/01/07 05:20:40;;;;;;;3.00;1.90;;;6.90;95.00;;;;;;5076119;28;20896;-88
2023/01/07 05:23:07;;;;;;;2.08;1.88;;;6.80;95.20;;;;;;5078570;28;20235;-82
2023/01/07 05:25:34;;;;;;;1.92;1.73;;;6.60;95.40;;;;;;5074803;28;20206;-82
2023/01/07 05:28:01;;;;;;;2.42;2.10;;;6.50;95.40;;;;;;5076289;28;20290;-82
2023/01/07 05:30:28;;;;;;;1.92;1.83;;;6.40;95.40;;;;;;5076370;28;20228;-87
2023/01/07 05:32:55;;;;;;;1.95;1.85;;;6.40;95.80;;;;;;5078274;28;20212;-84
2023/01/07 05:35:23;;;;;;;2.17;1.85;;;6.30;96.20;;;;;;5078680;28;20200;-82
2023/01/07 05:37:50;;;;;;;2.20;2.00;;;6.20;96.40;;;;;;5084158;28;20201;-81
2023/01/07 05:40:17;;;;;;;1.73;1.63;;;6.20;96.50;;;;;;5076441;28;20212;-82
2023/01/07 05:42:43;;;;;;;2.22;2.03;;;6.20;96.60;;;;;;5077224;28;20572;-82
2023/01/07 05:45:11;;;;;;;2.00;1.90;;;6.20;96.50;;;;;;5079283;28;20208;-84
2023/01/07 05:47:38;;;;;;;2.17;1.90;;;6.10;96.60;;;;;;5078615;28;20228;-84
2023/01/07 05:50:06;;;;;;;1.98;1.80;;;6.10;96.50;;;;;;5080452;28;20213;-85
2023/01/07 05:52:34;;;;;;;1.90;1.80;;;6.10;96.60;;;;;;5074958;28;20684;-85
2023/01/07 05:55:00;;;;;;;2.00;1.90;;;6.00;96.60;;;;;;5073641;28;20713;-84
2023/01/07 05:57:27;;;;;;;3.10;2.10;;;5.80;96.80;;;;;;5077779;28;20294;-82
2023/01/07 05:59:54;;;;;;;2.47;2.05;;;5.70;96.90;;;;;;5082546;28;20208;-82
2023/01/07 06:02:21;;;;;;;2.20;2.00;;;5.70;97.20;;;;;;5075955;28;20570;-82
2023/01/07 06:04:47;;;;;;;2.08;1.98;;;5.60;97.50;;;;;;5078423;28;20207;-85
2023/01/07 06:07:14;;;;;;;2.03;1.90;;;5.50;97.80;;;;;;5079387;28;20224;-82
2023/01/07 06:09:42;;;;;;;2.30;2.10;;;5.40;97.90;;;;;;5072242;28;20205;-83
2023/01/07 06:12:09;;;;;;;2.30;2.10;;;5.30;98.20;;;;;;5081981;28;20197;-82
2023/01/07 06:14:36;;;;;;;2.30;2.10;;;5.30;98.30;;;;;;5075075;28;20211;-82
2023/01/07 06:17:03;;;;;;;1.93;1.83;;;5.30;98.20;;;;;;5077261;28;20212;-82
2023/01/07 06:19:29;;;;;;;3.70;2.10;;;5.30;98.50;;;;;;5077950;28;20220;-82
2023/01/07 06:21:56;;;;;;;2.20;2.00;;;5.30;98.70;;;;;;5082295;28;20205;-82
2023/01/07 06:24:23;;;;;;;2.13;1.93;;;5.20;98.60;;;;;;5076639;28;20224;-82
2023/01/07 06:26:51;;;;;;;2.43;2.20;;;5.20;98.90;;;;;;5077296;28;20230;-79
2023/01/07 06:29:18;;;;;;;3.03;2.10;;;5.10;98.90;;;;;;5081017;28;20200;-80
2023/01/07 06:31:44;;;;;;;2.13;1.93;;;5.20;99.00;;;;;;5077955;28;20213;-79
2023/01/07 06:34:11;;;;;;;2.30;2.10;;;5.20;98.90;;;;;;5083321;28;20584;-80
2023/01/07 06:36:38;;;;;;;2.13;1.90;;;5.10;98.80;;;;;;5082528;28;20205;-80
2023/01/07 06:39:05;;;;;;;2.93;2.40;;;5.10;98.70;;;;;;5079603;28;20207;-79
2023/01/07 06:41:31;;;;;;;2.37;2.17;;;5.10;98.80;;;;;;5081855;28;20207;-80
2023/01/07 06:44:01;;;;;;;2.77;2.50;;;5.10;99.10;;;;;;5079611;28;20205;-83
2023/01/07 06:46:27;;;;;;;4.13;2.40;;;5.00;98.90;;;;;;5077983;28;20249;-80
2023/01/07 06:48:55;;;;;;;3.73;3.23;;;4.90;99.20;;;;;;5083531;28;20219;-81
2023/01/07 06:51:22;;;;;;;2.63;2.43;;;4.80;99.30;;;;;;5081413;28;20647;-80
2023/01/07 06:53:49;;;;;;;3.23;2.70;;;4.90;99.40;;;;;;5081125;28;20201;-79
2023/01/07 06:56:16;;;;;;;3.57;3.07;;;4.80;99.30;;;;;;5075916;28;20209;-79
2023/01/07 06:58:42;;;;;;;3.73;3.10;;;4.80;99.50;;;;;;5080002;28;20685;-83
2023/01/07 07:01:11;;;;;;;3.73;2.70;;;4.80;99.60;;;;;;5079635;28;20553;-80
2023/01/07 07:03:38;;;;;;;3.47;3.10;;;4.80;99.60;;;;;;5080333;28;20210;-80
2023/01/07 07:06:05;;;;;;;3.17;2.87;;;4.70;99.60;;;;;;5081014;28;20208;-79
2023/01/07 07:08:32;;;;;;;3.57;3.27;;;4.70;99.60;;;;;;5080386;28;20202;-79
2023/01/07 07:10:59;;;;;;;3.43;3.13;;;4.60;99.90;;;;;;5075331;28;20205;-79
2023/01/07 07:13:26;;;;;;;3.03;2.70;;;4.50;99.90;;;;;;5076263;28;20201;-79
2023/01/07 07:15:53;;;;;;;3.00;2.70;;;4.60;99.90;;;;;;5081867;28;20208;-82
2023/01/07 07:18:21;;;;;;;2.67;2.47;;;4.50;99.90;;;;;;5077934;28;20201;-80
2023/01/07 07:20:48;;;;;;;3.30;2.97;;;4.50;99.90;;;;;;5074268;28;20198;-81
2023/01/07 07:23:15;;;;;;;2.83;2.50;;;4.40;99.90;;;;;;5080417;28;20225;-80
2023/01/07 07:25:42;;;;;;;3.10;2.77;;;4.50;99.90;;;;;;5080945;28;20205;-80
2023/01/07 07:28:09;;;;;;;2.90;2.60;;;4.40;99.90;;;;;;5082920;28;20224;-83
2023/01/07 07:30:37;;;;;;;2.60;2.40;;;4.40;99.90;;;;;;5085279;28;20619;-79
2023/01/07 07:33:04;;;;;;;3.90;2.80;;;4.40;99.90;;;;;;5088158;28;20208;-80
2023/01/07 07:35:33;;;;;;;4.07;2.70;;;4.40;99.90;;;;;;5085141;28;20652;-86
2023/01/07 07:37:59;;;;;;;3.80;3.00;;;4.40;99.90;;;;;;5083451;28;20236;-79
2023/01/07 07:40:26;;;;;;;3.47;2.80;;;4.40;99.90;;;;;;5084709;28;20200;-79
2023/01/07 07:42:53;;;;;;;4.90;2.87;;;4.40;99.90;;;;;;5088491;28;20215;-83
2023/01/07 07:45:20;;;;;;;5.10;2.70;;;4.30;99.90;;;;;;5084670;28;20205;-81
2023/01/07 07:47:47;;;;;;;2.83;2.40;;;4.30;99.90;;;;;;5085474;28;20616;-83
2023/01/07 07:50:14;;;;;;;3.70;2.90;;;4.30;99.90;;;;;;5082095;28;20200;-83
2023/01/07 07:52:42;;;;;;;2.63;2.33;;;4.30;99.90;;;;;;5084055;28;20196;-81
2023/01/07 07:55:10;;;;;;;36.73;21.47;;;4.30;99.90;;;;;;5080845;28;20232;-83
2023/01/07 07:57:36;;;;;;;7.23;4.00;;;4.40;99.90;;;;;;5086056;28;20216;-81
2023/01/07 08:00:04;;;;;;;4.47;3.20;;;4.40;99.90;;;;;;5085799;28;20193;-82
2023/01/07 08:02:31;;;;;;;4.93;3.27;;;4.60;99.90;;;;;;5086556;28;20197;-80
2023/01/07 08:04:57;;;;;;;5.30;3.70;;;4.60;99.90;;;;;;5087093;28;20688;-80
2023/01/07 08:07:24;;;;;;;4.93;3.20;;;4.80;99.90;;;;;;5083470;28;20231;-85
2023/01/07 08:09:52;;;;;;;4.07;3.50;;;4.80;99.90;;;;;;5077464;28;20201;-81
2023/01/07 08:12:19;;;;;;;3.87;3.00;;;5.00;99.90;;;;;;5085877;28;20205;-84
2023/01/07 08:14:46;;;;;;;7.60;4.03;;;5.10;99.60;;;;;;5083680;28;20284;-84
2023/01/07 08:17:12;;;;;;;5.17;3.33;;;5.20;99.30;;;;;;5080717;28;20212;-83
2023/01/07 08:19:39;;;;;;;4.35;3.30;;;5.40;98.80;;;;;;5084718;28;20628;-85
2023/01/07 08:22:06;;;;;;;5.70;2.90;;;5.50;98.60;;;;;;5080403;28;20212;-84
2023/01/07 08:24:33;;;;;;;3.97;3.57;;;5.50;98.40;;;;;;5079614;28;20205;-85
2023/01/07 08:27:03;;;;;;;4.53;3.30;;;5.50;98.20;;;;;;5084632;28;20231;-84
2023/01/07 08:29:30;;;;;;;4.27;3.50;;;5.50;98.10;;;;;;5081430;28;20205;-84
2023/01/07 08:31:57;;;;;;;5.47;3.20;;;5.70;98.10;;;;;;5078887;28;20209;-83
2023/01/07 08:34:24;;;;;;;4.97;3.53;;;5.70;97.80;;;;;;5077113;28;20208;-84
2023/01/07 08:36:51;;;;;;;5.30;3.70;;;5.80;97.50;;;;;;5078996;28;20213;-83
2023/01/07 08:39:18;;;;;;;5.67;3.77;;;5.90;97.30;;;;;;5082916;28;20213;-84
2023/01/07 08:41:44;;;;;;;4.03;3.40;;;6.00;97.30;;;;;;5081444;28;20266;-88
2023/01/07 08:44:12;;;;;;;5.70;3.70;;;6.10;97.20;;;;;;5084884;28;20216;-84
2023/01/07 08:46:40;;;;;;;3.67;3.33;;;6.20;95.30;;;;;;5081127;28;20239;-83
2023/01/07 08:49:07;;;;;;;3.67;2.97;;;6.20;93.80;;;;;;5085130;28;20204;-83
2023/01/07 08:51:34;;;;;;;3.35;2.80;;;6.50;93.70;;;;;;5082469;28;20209;-82
2023/01/07 08:54:00;;;;;;;4.00;2.80;;;6.80;92.70;;;;;;5081214;28;20209;-84
2023/01/07 08:56:27;;;;;;;3.67;3.20;;;7.20;91.00;;;;;;5086413;28;20199;-83
2023/01/07 08:58:54;;;;;;;3.55;3.22;;;7.50;90.10;;;;;;5079391;28;20202;-82
2023/01/07 09:01:22;;;;;;;3.22;2.72;;;8.20;86.80;;;;;;5081795;28;20205;-83
2023/01/07 09:03:49;;;;;;;3.20;2.78;;;9.10;80.40;;;;;;5083121;28;20543;-84
2023/01/07 09:06:16;;;;;;;3.50;2.53;;;9.40;74.30;;;;;;5078836;28;20211;-85
2023/01/07 09:08:42;;;;;;;3.15;2.85;;;9.70;69.90;;;;;;5081506;28;20692;-84
2023/01/07 09:11:09;;;;;;;3.47;3.17;;;9.90;63.20;;;;;;5084978;28;20215;-84
2023/01/07 09:13:36;;;;;;;4.95;3.30;;;9.80;58.50;;;;;;5077824;28;20197;-84
2023/01/07 09:16:12;;;;;;;2.78;2.58;;;10.40;54.00;;;;;;5081204;28;20205;-87
2023/01/07 09:18:40;;;;;;;3.25;2.95;;;10.80;45.00;;;;;;5083567;28;20192;-84
2023/01/07 09:21:07;;;;;;;3.03;2.78;;;11.20;43.00;;;;;;5074896;28;20211;-85
2023/01/07 09:23:34;;;;;;;3.90;3.58;;;11.60;38.90;;;;;;5086717;28;20706;-87
2023/01/07 09:26:01;;;;;;;5.13;4.63;;;11.60;38.90;;;;;;5082987;28;20673;-89
2023/01/07 09:28:27;;;;;;;3.72;3.42;;;11.70;35.60;;;;;;5083990;28;20225;-87
2023/01/07 09:30:54;;;;;;;9.32;7.10;;;11.40;36.80;;;;;;5078164;28;20193;-88
2023/01/07 09:33:21;;;;;;;3.53;3.22;;;11.60;36.40;;;;;;5076401;28;20209;-87
2023/01/07 09:35:50;;;;;;;2.80;2.60;;;11.60;35.50;;;;;;5074075;28;20201;-88
2023/01/07 09:38:17;;;;;;;3.42;2.60;;;11.50;37.00;;;;;;5069926;28;20209;-88
2023/01/07 09:40:45;;;;;;;3.15;2.85;;;12.00;34.30;;;;;;5075582;28;20663;-87
2023/01/07 09:43:18;;;;;;;3.25;2.60;;;12.50;31.10;;;;;;5076162;28;20204;-87
2023/01/07 09:45:48;;;;;;;3.42;3.13;;;12.40;32.00;;;;;;5074503;28;20209;-88
2023/01/07 09:48:23;;;;;;;3.30;2.80;;;12.40;31.50;;;;;;5074336;28;20224;-85
2023/01/07 09:50:58;;;;;;;2.75;2.55;;;13.00;28.80;;;;;;5076929;28;20675;-86
2023/01/07 09:53:28;;;;;;;4.20;3.67;;;13.10;29.00;;;;;;5071695;28;20326;-86
2023/01/07 09:55:56;;;;;;;3.17;2.58;;;13.10;30.80;;;;;;5081227;28;20228;-86
2023/01/07 09:58:23;;;;;;;2.72;2.33;;;13.60;28.00;;;;;;5083025;28;20258;-86
2023/01/07 10:01:01;;;;;;;2.80;2.60;;;13.30;28.00;;;;;;5076030;28;20192;-87
2023/01/07 10:03:50;;;;;;;2.85;2.50;;;12.90;29.00;;;;;;5079333;28;20247;-88
2023/01/07 10:06:22;;;;;;;3.63;2.75;;;12.00;30.20;;;;;;5075235;28;20208;-85
2023/01/07 10:09:04;;;;;;;3.20;2.90;;;11.50;34.10;;;;;;5080459;28;20228;-85
2023/01/07 10:11:39;;;;;;;2.88;2.67;;;11.50;34.40;;;;;;5082623;28;20673;-86
2023/01/07 10:14:32;;;;;;;2.83;2.60;;;11.30;36.20;;;;;;5079974;28;20207;-85
2023/01/07 10:17:09;;;;;;;3.70;2.80;;;10.50;41.00;;;;;;5076584;28;20213;-85
2023/01/07 10:19:45;;;;;;;3.53;2.85;;;10.10;46.90;;;;;;5083721;28;20219;-84
2023/01/07 10:22:24;;;;;;;3.13;2.67;;;10.40;47.20;;;;;;5082762;28;20207;-86
2023/01/07 10:24:56;;;;;;;2.97;2.47;;;10.10;48.40;;;;;;5080174;28;20254;-87
2023/01/07 10:27:30;;;;;;;2.70;2.50;;;10.40;49.90;;;;;;5077285;28;20228;-86
2023/01/07 10:30:01;;;;;;;2.47;2.28;;;10.70;47.50;;;;;;5081554;28;20284;-86
2023/01/07 10:32:32;;;;;;;2.53;2.17;;;11.30;46.30;;;;;;5078314;28;20629;-89
2023/01/07 10:35:01;;;;;;;2.40;2.20;;;11.10;45.90;;;;;;5080859;28;20197;-84
2023/01/07 10:37:32;;;;;;;2.25;2.05;;;11.30;45.80;;;;;;5080046;28;20200;-84
2023/01/07 10:40:16;;;;;;;2.20;2.00;;;11.30;44.90;;;;;;5084143;28;20205;-85
2023/01/07 10:42:51;;;;;;;2.33;2.05;;;11.50;45.30;;;;;;5087124;28;20200;-84
2023/01/07 10:45:35;;;;;;;2.75;2.45;;;11.50;44.90;;;;;;5081916;28;20203;-85
2023/01/07 10:48:22;;;;;;;2.88;2.15;;;11.80;41.80;;;;;;5076790;28;20216;-86
2023/01/07 10:51:03;;;;;;;2.33;2.13;;;11.90;40.80;;;;;;5080824;28;20192;-85
2023/01/07 10:53:55;;;;;;;3.53;2.20;;;12.00;40.80;;;;;;5086397;28;20674;-84
2023/01/07 10:56:28;;;;;;;2.40;2.20;;;11.70;39.70;;;;;;5083222;28;20270;-85
2023/01/07 10:58:55;;;;;;;2.30;2.08;;;11.60;39.50;;;;;;5083220;28;20205;-85
2023/01/07 11:01:25;;;;;;;2.35;2.17;;;11.80;39.60;;;;;;5080998;28;20201;-84
2023/01/07 11:03:54;;;;;;;3.53;2.20;;;11.90;38.20;;;;;;5077113;28;20193;-84
2023/01/07 11:06:32;;;;;;;2.03;1.92;;;11.40;39.60;;;;;;5080492;28;20254;-84
2023/01/07 11:09:02;;;;;;;2.30;2.05;;;10.90;43.50;;;;;;5085412;28;20220;-85
2023/01/07 11:11:31;;;;;;;3.03;1.95;;;10.80;43.50;;;;;;5076048;28;20212;-86
2023/01/07 11:14:01;;;;;;;5.00;3.05;;;10.80;46.80;;;;;;5084740;28;20576;-85
2023/01/07 11:16:31;;;;;;;2.40;2.20;;;10.90;46.10;;;;;;5076401;28;20546;-85
2023/01/07 11:19:04;;;;;;;2.47;2.28;;;10.60;47.40;;;;;;5080035;28;20204;-85
2023/01/07 11:21:33;;;;;;;2.75;2.33;;;10.20;48.90;;;;;;5079207;28;20625;-89
2023/01/07 11:24:01;;;;;;;3.28;1.98;;;10.20;49.30;;;;;;5079692;28;20219;-90
2023/01/07 11:26:32;;;;;;;6.95;3.15;;;9.80;54.90;;;;;;5072075;28;20198;-90
2023/01/07 11:29:17;;;;;;;2.85;2.30;;;10.00;55.80;;;;;;5076032;28;20220;-89
2023/01/07 11:31:48;;;;;;;2.35;2.15;;;9.40;60.40;;;;;;5071647;28;20676;-90
2023/01/07 11:34:25;;;;;;;3.00;2.30;;;9.40;62.40;;;;;;5074519;28;20714;-90
2023/01/07 11:36:52;;;;;;;2.35;2.15;;;9.50;62.80;;;;;;5078154;28;20208;-89
2023/01/07 11:39:23;;;;;;;2.22;2.03;;;9.70;60.10;;;;;;5077125;28;20197;-90
2023/01/07 11:41:56;;;;;;;2.45;2.25;;;9.80;59.00;;;;;;5079620;28;20196;-90
2023/01/07 11:44:23;;;;;;;2.88;1.80;;;9.90;57.50;;;;;;5072138;28;20202;-90
2023/01/07 11:46:50;;;;;;;2.85;2.10;;;9.90;56.80;;;;;;5078353;28;20630;-89
2023/01/07 11:49:24;;;;;;;2.10;1.90;;;9.90;58.10;;;;;;5075593;28;20232;-89
2023/01/07 11:51:51;;;;;;;2.70;2.00;;;9.90;58.00;;;;;;5071738;28;20195;-89
2023/01/07 11:54:23;;;;;;;2.35;2.15;;;10.00;56.70;;;;;;5070860;28;20198;-89
2023/01/07 11:56:50;;;;;;;2.20;2.00;;;10.10;56.00;;;;;;5072841;28;20201;-89
2023/01/07 11:59:28;;;;;;;2.70;1.92;;;10.10;54.30;;;;;;5078753;28;20209;-90
2023/01/07 12:01:58;;;;;;;3.22;2.25;;;10.00;55.90;;;;;;5076162;28;20231;-89
2023/01/07 12:04:27;;;;;;;4.10;2.67;;;9.90;59.20;;;;;;5074767;28;20291;-89
2023/01/07 12:06:56;;;;;;;3.85;1.80;;;9.90;60.20;;;;;;5076621;28;20591;-89
2023/01/07 12:09:35;;;;;;;6.93;3.13;;;9.90;58.50;;;;;;5071052;28;20225;-88
2023/01/07 12:15:02;;;;;;;4.53;2.38;;;10.10;58.20;;;;;;5078959;28;20215;-90
2023/01/07 12:17:32;;;;;;;3.15;2.10;;;10.20;56.30;;;;;;5088174;28;20201;-88
2023/01/07 12:20:36;;;;;;;2.80;2.45;;;10.30;55.80;;;;;;5086454;28;20215;-89
2023/01/07 12:23:13;;;;;;;2.17;1.90;;;10.30;55.80;;;;;;5076376;28;20247;-88
2023/01/07 12:25:54;;;;;;;1.80;1.60;;;10.40;53.80;;;;;;5063319;28;20581;-90
2023/01/07 12:28:32;;;;;;;2.63;2.05;;;10.40;53.80;;;;;;5080469;28;20278;-88
2023/01/07 12:31:11;;;;;;;1.73;1.63;;;10.50;52.80;;;;;;5078723;28;20192;-90
2023/01/07 12:34:02;;;;;;;2.03;1.88;;;10.40;53.60;;;;;;5075443;28;20463;-87
2023/01/07 12:36:54;;;;;;;1.55;1.45;;;10.40;53.00;;;;;;5073325;28;20205;-92
2023/01/07 12:42:13;;;;;;;2.17;1.98;;;10.20;54.50;;;;;;5078477;28;20957;-90
2023/01/07 12:44:48;;;;;;;2.10;1.88;;;10.20;55.30;;;;;;5082039;28;20201;-90
2023/01/07 12:47:20;;;;;;;1.92;1.75;;;10.20;54.90;;;;;;5082708;28;20207;-86
2023/01/07 12:49:52;;;;;;;2.42;2.05;;;10.30;54.70;;;;;;5083448;28;20262;-86
2023/01/07 12:52:25;;;;;;;2.22;1.95;;;10.20;55.10;;;;;;5076916;28;20200;-85
2023/01/07 12:54:57;;;;;;;2.65;1.73;;;10.20;56.90;;;;;;5079011;28;20239;-90
2023/01/07 12:57:30;;;;;;;4.63;2.20;;;10.20;55.90;;;;;;5076066;28;20201;-85
2023/01/07 13:00:04;;;;;;;3.47;1.90;;;10.00;54.20;;;;;;5081023;28;20216;-85
2023/01/07 13:02:38;;;;;;;4.20;2.03;;;10.00;54.80;;;;;;5084548;28;20715;-84
2023/01/07 13:05:11;;;;;;;3.58;2.10;;;10.00;54.20;;;;;;5079385;28;20213;-85
2023/01/07 13:07:47;;;;;;;2.90;2.28;;;10.10;54.60;;;;;;5078086;28;20751;-86
2023/01/07 13:10:19;;;;;;;2.35;1.90;;;10.10;54.90;;;;;;5075387;28;20207;-85
2023/01/07 13:12:50;;;;;;;2.63;1.90;;;10.10;55.00;;;;;;5078185;28;20209;-86
2023/01/07 13:15:21;;;;;;;1.80;1.70;;;10.10;54.90;;;;;;5079126;28;20333;-85
2023/01/07 13:18:03;;;;;;;2.30;2.10;;;10.10;55.40;;;;;;5078642;28;20194;-85
2023/01/07 13:20:43;;;;;;;2.30;2.10;;;10.30;55.80;;;;;;5081534;28;20205;-85